NCAR-RAP Real-Time Weather Data

Output produced by METARs form (28 June 2017  12:05 UTC)
found at http://weather.rap.ucar.edu/surface/
 
Conditions at: KPIE observed 28 June 2017  11:53 UTC
Temperature: 26.1°C (79°F)
Dewpoint: 22.8°C (73°F) [RH = 82%]
Pressure (altimeter): 30.03 inches Hg (1017.0 mb)
[Sea-level pressure: 1017.0 mb]
Winds: calm
Visibility: 10 or more miles (16+ km)
Ceiling: at least 12,000 feet AGL
Clouds: sky clear below 12,000 feet AGL
Present Weather: no significant weather observed at this time
KPIE 281153Z 00000KT 10SM CLR 26/23 A3003 RMK AO2 SLP170 T02610228 10261 20239 53013

Conditions at: KPIE observed 28 June 2017  10:53 UTC
Temperature: 24.4°C (76°F)
Dewpoint: 22.2°C (72°F) [RH = 88%]
Pressure (altimeter): 30.02 inches Hg (1016.7 mb)
[Sea-level pressure: 1016.4 mb]
Winds: calm
Visibility: 10 or more miles (16+ km)
Ceiling: at least 12,000 feet AGL
Clouds: sky clear below 12,000 feet AGL
Present Weather: no significant weather observed at this time
KPIE 281053Z 00000KT 10SM CLR 24/22 A3002 RMK AO2 SLP164 T02440222

Conditions at: KPIE observed 28 June 2017  09:53 UTC
Temperature: 24.4°C (76°F)
Dewpoint: 22.2°C (72°F) [RH = 88%]
Pressure (altimeter): 30.01 inches Hg (1016.3 mb)
[Sea-level pressure: 1016.1 mb]
Winds: from the SE (130 degrees) at 3 MPH (3 knots; 1.6 m/s)
Visibility: 10 or more miles (16+ km)
Ceiling: at least 12,000 feet AGL
Clouds: sky clear below 12,000 feet AGL
Present Weather: no significant weather observed at this time
KPIE 280953Z 13003KT 10SM CLR 24/22 A3001 RMK AO2 SLP161 T02440222

Conditions at: KPIE observed 28 June 2017  08:53 UTC
Temperature: 24.4°C (76°F)
Dewpoint: 22.2°C (72°F) [RH = 88%]
Pressure (altimeter): 30.00 inches Hg (1016.0 mb)
[Sea-level pressure: 1015.7 mb]
Winds: from the SSE (150 degrees) at 3 MPH (3 knots; 1.6 m/s)
Visibility: 10 or more miles (16+ km)
Ceiling: at least 12,000 feet AGL
Clouds: sky clear below 12,000 feet AGL
Present Weather: automated observation with no human augmentation;
there may or may not be significant weather present at this time
KPIE 280853Z AUTO 15003KT 10SM CLR 24/22 A3000 RMK AO2 SLP157 T02440222 55007

Conditions at: KPIE observed 28 June 2017  07:53 UTC
Temperature: 25.0°C (77°F)
Dewpoint: 22.2°C (72°F) [RH = 84%]
Pressure (altimeter): 29.98 inches Hg (1015.3 mb)
[Sea-level pressure: 1015.3 mb]
Winds: calm
Visibility: 10 or more miles (16+ km)
Ceiling: at least 12,000 feet AGL
Clouds: sky clear below 12,000 feet AGL
Present Weather: automated observation with no human augmentation;
there may or may not be significant weather present at this time
KPIE 280753Z AUTO 00000KT 10SM CLR 25/22 A2998 RMK AO2 SLP153 T02500222

Conditions at: KPIE observed 28 June 2017  06:53 UTC
Temperature: 25.0°C (77°F)
Dewpoint: 22.8°C (73°F) [RH = 88%]
Pressure (altimeter): 29.99 inches Hg (1015.7 mb)
[Sea-level pressure: 1015.3 mb]
Winds: from the SE (130 degrees) at 6 MPH (5 knots; 2.6 m/s)
Visibility: 10 or more miles (16+ km)
Ceiling: at least 12,000 feet AGL
Clouds: sky clear below 12,000 feet AGL
Present Weather: automated observation with no human augmentation;
there may or may not be significant weather present at this time
KPIE 280653Z AUTO 13005KT 10SM CLR 25/23 A2999 RMK AO2 SLP153 T02500228

Conditions at: KPIE observed 28 June 2017  05:53 UTC
Temperature: 25.0°C (77°F)
Dewpoint: 22.8°C (73°F) [RH = 88%]
Pressure (altimeter): 30.01 inches Hg (1016.3 mb)
[Sea-level pressure: 1016.3 mb]
Winds: from the ESE (120 degrees) at 6 MPH (5 knots; 2.6 m/s)
Visibility: 10 or more miles (16+ km)
Ceiling: at least 12,000 feet AGL
Clouds: sky clear below 12,000 feet AGL
Present Weather: automated observation with no human augmentation;
there may or may not be significant weather present at this time
KPIE 280553Z AUTO 12005KT 10SM CLR 25/23 A3001 RMK AO2 SLP163 T02500228 10300 20250 58002

Conditions at: KPIE observed 28 June 2017  04:53 UTC
Temperature: 25.6°C (78°F)
Dewpoint: 22.2°C (72°F) [RH = 82%]
Pressure (altimeter): 30.01 inches Hg (1016.3 mb)
[Sea-level pressure: 1016.3 mb]
Winds: from the SE (130 degrees) at 3 MPH (3 knots; 1.6 m/s)
Visibility: 10 or more miles (16+ km)
Ceiling: at least 12,000 feet AGL
Clouds: sky clear below 12,000 feet AGL
Present Weather: automated observation with no human augmentation;
there may or may not be significant weather present at this time
KPIE 280453Z AUTO 13003KT 10SM CLR 26/22 A3001 RMK AO2 SLP163 T02560222 403330250

Conditions at: KPIE observed 28 June 2017  03:53 UTC
Temperature: 26.1°C (79°F)
Dewpoint: 22.8°C (73°F) [RH = 82%]
Pressure (altimeter): 30.02 inches Hg (1016.7 mb)
[Sea-level pressure: 1016.6 mb]
Winds: from the SE (140 degrees) at 8 MPH (7 knots; 3.6 m/s)
Visibility: 10 or more miles (16+ km)
Ceiling: at least 12,000 feet AGL
Clouds: sky clear below 12,000 feet AGL
Present Weather: automated observation with no human augmentation;
there may or may not be significant weather present at this time
KPIE 280353Z AUTO 14007KT 10SM CLR 26/23 A3002 RMK AO2 SLP166 T02610228

Conditions at: KPIE observed 28 June 2017  02:53 UTC
Temperature: 26.7°C (80°F)
Dewpoint: 23.9°C (75°F) [RH = 85%]
Pressure (altimeter): 30.02 inches Hg (1016.7 mb)
[Sea-level pressure: 1016.5 mb]
Winds: from the ESE (110 degrees) at 9 MPH (8 knots; 4.2 m/s)
Visibility: 10 or more miles (16+ km)
Ceiling: at least 12,000 feet AGL
Clouds: few clouds at 1200 feet AGL
Present Weather: automated observation with no human augmentation;
there may or may not be significant weather present at this time
KPIE 280253Z AUTO 11008KT 10SM FEW012 27/24 A3002 RMK AO2 SLP165 T02670239 53014

Conditions at: KPIE observed 28 June 2017  01:53 UTC
Temperature: 29.4°C (85°F)
Dewpoint: 22.8°C (73°F) [RH = 68%]
Pressure (altimeter): 30.01 inches Hg (1016.3 mb)
[Sea-level pressure: 1016.1 mb]
Winds: from the NNE (30 degrees) at 10 MPH (9 knots; 4.7 m/s)
Visibility: 10 or more miles (16+ km)
Ceiling: at least 12,000 feet AGL
Clouds: few clouds at 3500 feet AGL
Present Weather: no significant weather observed at this time
KPIE 280153Z 03009KT 10SM FEW035 29/23 A3001 RMK AO2 SLP161 T02940228

Conditions at: KPIE observed 28 June 2017  00:53 UTC
Temperature: 28.9°C (84°F)
Dewpoint: 22.8°C (73°F) [RH = 70%]
Pressure (altimeter): 29.99 inches Hg (1015.7 mb)
[Sea-level pressure: 1015.4 mb]
Winds: from the NNW (340 degrees) at 8 MPH (7 knots; 3.6 m/s)
Visibility: 10 or more miles (16+ km)
Ceiling: at least 12,000 feet AGL
Clouds: sky clear below 12,000 feet AGL
Present Weather: no significant weather observed at this time
KPIE 280053Z 34007KT 10SM CLR 29/23 A2999 RMK AO2 SLP154 T02890228

Conditions at: KPIE observed 27 June 2017  23:53 UTC
Temperature: 30.0°C (86°F)
Dewpoint: 22.8°C (73°F) [RH = 65%]
Pressure (altimeter): 29.98 inches Hg (1015.3 mb)
[Sea-level pressure: 1015.1 mb]
Winds: from the NNW (330 degrees) at 9 MPH (8 knots; 4.2 m/s)
Visibility: 10 or more miles (16+ km)
Ceiling: at least 12,000 feet AGL
Clouds: sky clear below 12,000 feet AGL
Present Weather: no significant weather observed at this time
KPIE 272353Z 33008KT 10SM CLR 30/23 A2998 RMK AO2 SLP151 T03000228 10333 20300 53010

Conditions at: KPIE observed 27 June 2017  22:53 UTC
Temperature: 31.1°C (88°F)
Dewpoint: 22.8°C (73°F) [RH = 61%]
Pressure (altimeter): 29.96 inches Hg (1014.6 mb)
[Sea-level pressure: 1014.4 mb]
Winds: from the NW (320 degrees) at 10 MPH (9 knots; 4.7 m/s)
Visibility: 10 or more miles (16+ km)
Ceiling: at least 12,000 feet AGL
Clouds: scattered clouds at 3500 feet AGL
Present Weather: no significant weather observed at this time
KPIE 272253Z 32009KT 10SM SCT035 31/23 A2996 RMK AO2 SLP144 T03110228

Conditions at: KPIE observed 27 June 2017  21:53 UTC
Temperature: 31.7°C (89°F)
Dewpoint: 21.7°C (71°F) [RH = 56%]
Pressure (altimeter): 29.96 inches Hg (1014.6 mb)
[Sea-level pressure: 1014.4 mb]
Winds: from the WNW (300 degrees) at 14 MPH (12 knots; 6.2 m/s)
Visibility: 10 or more miles (16+ km)
Ceiling: at least 12,000 feet AGL
Clouds: few clouds at 4000 feet AGL
Present Weather: no significant weather observed at this time
KPIE 272153Z 30012KT 10SM FEW040 32/22 A2996 RMK AO2 LTG DSNT E SLP144 T03170217

Conditions at: KPIE observed 27 June 2017  20:53 UTC
Temperature: 32.8°C (91°F)
Dewpoint: 22.8°C (73°F) [RH = 56%]
Pressure (altimeter): 29.95 inches Hg (1014.3 mb)
[Sea-level pressure: 1014.1 mb]
Winds: from the WNW (300 degrees) at 12 MPH (10 knots; 5.2 m/s)
gusting to 22 MPH (19 knots; 9.9 m/s)
Visibility: 10 or more miles (16+ km)
Ceiling: at least 12,000 feet AGL
Clouds: few clouds at 4500 feet AGL
Present Weather: no significant weather observed at this time
KPIE 272053Z COR 30010G19KT 10SM FEW045 33/23 A2995 RMK AO2 SLP141 T03280228 57013

Conditions at: KPIE observed 27 June 2017  19:53 UTC
Temperature: 32.8°C (91°F)
Dewpoint: 22.2°C (72°F) [RH = 54%]
Pressure (altimeter): 29.97 inches Hg (1015.0 mb)
[Sea-level pressure: 1014.8 mb]
Winds: from the NW (310 degrees) at 10 MPH (9 knots; 4.7 m/s)
Visibility: 10 or more miles (16+ km)
Ceiling: at least 12,000 feet AGL
Clouds: scattered clouds at 4500 feet AGL
Present Weather: no significant weather observed at this time
KPIE 271953Z 31009KT 260V330 10SM SCT045 33/22 A2997 RMK AO2 LTG DSNT E SLP148 TCU DSNT SE T03280222

Conditions at: KPIE observed 27 June 2017  18:53 UTC
Temperature: 32.8°C (91°F)
Dewpoint: 22.8°C (73°F) [RH = 56%]
Pressure (altimeter): 29.97 inches Hg (1015.0 mb)
[Sea-level pressure: 1014.7 mb]
Winds: from the NW (320 degrees) at 9 MPH (8 knots; 4.2 m/s)
Visibility: 10 or more miles (16+ km)
Ceiling: at least 12,000 feet AGL
Clouds: sky clear below 12,000 feet AGL
Present Weather: no significant weather observed at this time
KPIE 271853Z 32008KT 10SM CLR 33/23 A2997 RMK AO2 SLP147 T03280228

Conditions at: KPIE observed 27 June 2017  17:53 UTC
Temperature: 32.8°C (91°F)
Dewpoint: 22.8°C (73°F) [RH = 56%]
Pressure (altimeter): 29.99 inches Hg (1015.7 mb)
[Sea-level pressure: 1015.4 mb]
Winds: from the NNW (330 degrees) at 8 MPH (7 knots; 3.6 m/s)
Visibility: 10 or more miles (16+ km)
Ceiling: at least 12,000 feet AGL
Clouds: sky clear below 12,000 feet AGL
Present Weather: no significant weather observed at this time
KPIE 271753Z 33007KT 10SM CLR 33/23 A2999 RMK AO2 SLP154 T03280228 10328 20283 58009

Conditions at: KPIE observed 27 June 2017  16:53 UTC
Temperature: 32.2°C (90°F)
Dewpoint: 21.7°C (71°F) [RH = 54%]
Pressure (altimeter): 30.00 inches Hg (1016.0 mb)
[Sea-level pressure: 1016.0 mb]
Winds: from the NW (320 degrees) at 12 MPH (10 knots; 5.2 m/s)
Visibility: 10 or more miles (16+ km)
Ceiling: at least 12,000 feet AGL
Clouds: sky clear below 12,000 feet AGL
Present Weather: no significant weather observed at this time
KPIE 271653Z 32010KT 10SM CLR 32/22 A3000 RMK AO2 SLP160 T03220217

Conditions at: KPIE observed 27 June 2017  15:53 UTC
Temperature: 32.2°C (90°F)
Dewpoint: 23.3°C (74°F) [RH = 59%]
Pressure (altimeter): 30.02 inches Hg (1016.7 mb)
[Sea-level pressure: 1016.4 mb]
Winds: from the WNW (300 degrees) at 9 MPH (8 knots; 4.2 m/s)
Visibility: 10 or more miles (16+ km)
Ceiling: at least 12,000 feet AGL
Clouds: scattered clouds at 3300 feet AGL
Present Weather: no significant weather observed at this time
KPIE 271553Z 30008KT 10SM SCT033 32/23 A3002 RMK AO2 SLP164 T03220233

Conditions at: KPIE observed 27 June 2017  14:53 UTC
Temperature: 31.1°C (88°F)
Dewpoint: 22.8°C (73°F) [RH = 61%]
Pressure (altimeter): 30.01 inches Hg (1016.3 mb)
[Sea-level pressure: 1016.3 mb]
Winds: from the WNW (300 degrees) at 10 MPH (9 knots; 4.7 m/s)
Visibility: 10 or more miles (16+ km)
Ceiling: at least 12,000 feet AGL
Clouds: scattered clouds at 2700 feet AGL
Present Weather: no significant weather observed at this time
KPIE 271453Z 30009KT 10SM SCT027 31/23 A3001 RMK AO2 SLP163 T03110228 50003

Conditions at: KPIE observed 27 June 2017  13:53 UTC
Temperature: 30.0°C (86°F)
Dewpoint: 23.9°C (75°F) [RH = 70%]
Pressure (altimeter): 30.02 inches Hg (1016.7 mb)
[Sea-level pressure: 1016.5 mb]
Winds: from the W (270 degrees) at 7 MPH (6 knots; 3.1 m/s)
Visibility: 10 or more miles (16+ km)
Ceiling: at least 12,000 feet AGL
Clouds: sky clear below 12,000 feet AGL
Present Weather: no significant weather observed at this time
KPIE 271353Z 27006KT 10SM CLR 30/24 A3002 RMK AO2 SLP165 T03000239

Conditions at: KPIE observed 27 June 2017  12:53 UTC
Temperature: 28.9°C (84°F)
Dewpoint: 23.9°C (75°F) [RH = 74%]
Pressure (altimeter): 30.02 inches Hg (1016.7 mb)
[Sea-level pressure: 1016.6 mb]
Winds: from the WNW (300 degrees) at 8 MPH (7 knots; 3.6 m/s)
Visibility: 10 or more miles (16+ km)
Ceiling: at least 12,000 feet AGL
Clouds: scattered clouds at 1800 feet AGL
scattered clouds at 4000 feet AGL
Present Weather: no significant weather observed at this time
KPIE 271253Z 30007KT 10SM SCT018 SCT040 29/24 A3002 RMK AO2 SLP166 T02890239